createdAt,value
2022-10-06T09:52:22.348Z,94.26
2022-10-06T09:53:22.387Z,93.68
2022-10-06T09:54:22.443Z,92.86
2022-10-06T09:55:22.499Z,92.57
2022-10-06T09:56:22.556Z,92.53
2022-10-06T09:57:22.612Z,92.53
2022-10-06T09:58:22.675Z,93.44
2022-10-06T09:59:22.727Z,93.82
2022-10-06T10:00:22.784Z,94.59
2022-10-06T10:01:22.866Z,95.17
2022-10-06T10:02:22.898Z,94.40
2022-10-06T10:03:23.056Z,93.35
2022-10-06T10:04:23.012Z,92.82
2022-10-06T10:05:23.078Z,93.59
2022-10-06T10:06:23.144Z,93.82
2022-10-06T10:07:23.182Z,92.19
2022-10-06T10:08:23.338Z,91.33
2022-10-06T10:09:23.296Z,91.33
2022-10-06T10:10:23.356Z,90.95
2022-10-06T10:11:23.411Z,91.52
2022-10-06T10:12:23.470Z,91.62
2022-10-06T10:13:23.524Z,92.00
2022-10-06T10:14:23.582Z,91.52
2022-10-06T10:15:23.639Z,90.28
2022-10-06T10:16:23.778Z,90.95
2022-10-06T10:17:23.752Z,90.95
2022-10-06T10:18:23.816Z,90.80
2022-10-06T10:19:23.867Z,90.32
2022-10-06T10:20:23.925Z,90.61
2022-10-06T10:21:23.981Z,90.80
2022-10-06T10:22:24.040Z,90.61
2022-10-06T10:23:28.559Z,90.32
2022-10-06T10:24:24.172Z,90.03
2022-10-06T10:25:24.209Z,90.22
2022-10-06T10:26:24.267Z,90.32
2022-10-06T10:27:24.325Z,91.19
2022-10-06T10:28:24.401Z,90.90
2022-10-06T10:29:24.438Z,91.19
2022-10-06T10:30:24.500Z,90.70
2022-10-06T10:31:24.571Z,90.70
2022-10-06T10:32:24.611Z,89.07
2022-10-06T10:33:24.669Z,88.65
2022-10-06T10:34:25.137Z,88.59
2022-10-06T10:35:24.784Z,88.79
2022-10-06T10:36:24.850Z,88.11
2022-10-06T10:37:24.896Z,88.21
2022-10-06T10:38:24.954Z,87.82
2022-10-06T10:39:25.011Z,87.73
2022-10-06T10:40:25.087Z,87.39
2022-10-06T10:41:25.125Z,87.29
2022-10-06T10:42:25.185Z,86.81
2022-10-06T10:43:25.239Z,86.52
2022-10-06T10:44:25.296Z,86.62
2022-10-06T10:45:25.356Z,86.05
2022-10-06T10:46:25.469Z,86.05
2022-10-06T10:47:25.472Z,85.95
2022-10-06T10:48:25.527Z,85.66
2022-10-06T10:49:25.584Z,85.52
2022-10-06T10:50:25.646Z,85.95
2022-10-06T10:51:25.698Z,85.57
2022-10-06T10:52:25.757Z,85.66
2022-10-06T10:53:25.816Z,85.95
2022-10-06T10:54:25.872Z,85.95
2022-10-06T10:55:25.928Z,85.85
2022-10-06T10:56:26.004Z,85.61
2022-10-06T10:57:26.042Z,85.61
2022-10-06T10:58:26.102Z,85.41
2022-10-06T10:59:26.159Z,85.71
2022-10-06T11:00:26.218Z,85.94
2022-10-06T11:01:26.275Z,84.98
2022-10-06T11:02:26.338Z,83.62
2022-10-06T11:03:26.400Z,82.12
2022-10-06T11:04:26.454Z,80.81
2022-10-06T11:05:28.295Z,79.02
2022-10-06T11:06:26.572Z,76.84
2022-10-06T11:07:26.630Z,75.37
2022-10-06T11:08:26.690Z,75.37
2022-10-06T11:09:26.749Z,74.25
2022-10-06T11:10:26.809Z,72.22
2022-10-06T11:11:26.869Z,72.03
2022-10-06T11:12:26.949Z,71.88
2022-10-06T11:13:26.991Z,71.36
2022-10-06T11:14:27.054Z,71.42
2022-10-06T11:15:27.111Z,72.28
2022-10-06T11:16:27.260Z,71.45
2022-10-06T11:17:27.233Z,70.72
2022-10-06T11:18:27.293Z,70.26
2022-10-06T11:19:27.353Z,69.92
2022-10-06T11:20:27.415Z,69.68
2022-10-06T11:21:27.474Z,69.92
2022-10-06T11:22:27.538Z,70.32
2022-10-06T11:23:27.598Z,70.17
2022-10-06T11:24:27.660Z,69.78
2022-10-06T11:25:30.081Z,70.46
2022-10-06T11:26:27.784Z,70.04
2022-10-06T11:27:27.843Z,70.84
2022-10-06T11:28:28.026Z,70.78
2022-10-06T11:29:27.966Z,70.08
2022-10-06T11:30:28.028Z,69.21
2022-10-06T11:31:28.151Z,68.01
2022-10-06T11:32:28.152Z,68.05
2022-10-06T11:33:28.213Z,67.85
2022-10-06T11:34:28.277Z,68.05
2022-10-06T11:35:28.338Z,67.56
2022-10-06T11:36:28.402Z,67.37
2022-10-06T11:37:28.461Z,66.88
2022-10-06T11:38:28.528Z,67.72
2022-10-06T11:39:28.611Z,68.27
2022-10-06T11:40:28.654Z,69.87
2022-10-06T11:41:28.712Z,72.91
2022-10-06T11:43:28.837Z,77.53
2022-10-06T11:44:28.919Z,76.45
2022-10-06T11:45:29.041Z,73.73
2022-10-06T11:46:31.800Z,71.68
2022-10-06T11:47:36.461Z,70.17
2022-10-06T11:48:29.146Z,68.37
2022-10-06T11:49:29.219Z,67.88
2022-10-06T11:50:29.270Z,69.49
2022-10-06T11:51:29.332Z,70.94
2022-10-06T11:52:29.394Z,71.26
2022-10-06T11:53:29.454Z,70.46
2022-10-06T11:54:29.518Z,68.30
2022-10-06T11:55:29.579Z,67.66
2022-10-06T11:56:29.642Z,67.82
2022-10-06T11:57:31.361Z,67.02
2022-10-06T11:58:42.031Z,66.53
2022-10-06T11:59:29.913Z,65.98
2022-10-06T12:00:29.908Z,64.88
2022-10-06T12:01:29.955Z,64.01
2022-10-06T12:02:30.180Z,63.56
2022-10-06T12:03:30.075Z,64.01
2022-10-06T12:04:30.138Z,65.98
2022-10-06T12:05:57.622Z,66.43
2022-10-06T12:06:30.269Z,67.33
2022-10-06T12:07:30.329Z,67.79
2022-10-06T12:08:30.389Z,67.98
2022-10-06T12:09:30.451Z,67.36
2022-10-06T12:10:30.514Z,68.01
2022-10-06T12:11:30.577Z,68.40
2022-10-06T12:12:30.640Z,68.24
2022-10-06T12:17:09.433Z,66.69
2022-10-06T12:17:30.952Z,65.85
2022-10-06T12:18:31.015Z,65.27
2022-10-06T12:19:31.077Z,65.14
2022-10-06T12:20:31.139Z,65.82
2022-10-06T12:21:31.201Z,65.20
2022-10-06T12:22:31.298Z,65.11
2022-10-06T12:23:31.328Z,65.01
2022-10-06T12:24:31.390Z,65.11
2022-10-06T12:25:31.450Z,65.43
2022-10-06T12:26:31.517Z,65.24
2022-10-06T12:27:31.583Z,66.05
2022-10-06T12:28:31.720Z,66.66
2022-10-06T12:29:31.705Z,67.56
2022-10-06T12:30:31.820Z,66.56
2022-10-06T12:31:31.828Z,65.37
2022-10-06T12:32:31.921Z,63.65
2022-10-06T12:33:31.952Z,63.17
2022-10-06T12:34:32.035Z,63.62
2022-10-06T12:35:32.080Z,64.04
2022-10-06T12:36:32.150Z,64.40
2022-10-06T12:37:32.217Z,65.85
2022-10-06T12:38:32.270Z,66.08
2022-10-06T12:39:32.331Z,65.17
2022-10-06T12:40:32.393Z,63.92
2022-10-06T12:41:32.456Z,63.49
2022-10-06T12:42:32.518Z,63.89
2022-10-06T12:43:32.580Z,64.27
2022-10-06T12:44:32.646Z,64.14
2022-10-06T12:45:32.704Z,64.17
2022-10-06T12:46:32.873Z,65.34
2022-10-06T12:47:32.831Z,65.88
2022-10-06T12:48:32.914Z,65.85
2022-10-06T12:49:32.956Z,66.08
2022-10-06T12:50:33.020Z,66.43
2022-10-06T12:52:33.145Z,67.75
2022-10-06T12:53:33.209Z,66.53
2022-10-06T12:54:33.270Z,65.92
2022-10-06T12:55:33.332Z,66.02
2022-10-06T12:56:33.395Z,64.69
2022-10-06T12:57:33.457Z,64.89
2022-10-06T12:58:33.537Z,64.20
2022-10-06T12:59:33.583Z,64.50
2022-10-06T13:00:33.646Z,64.75
2022-10-06T13:01:33.787Z,66.53
2022-10-06T13:02:33.826Z,67.01
2022-10-06T13:03:33.846Z,66.88
2022-10-06T13:04:33.914Z,66.02
2022-10-06T13:05:33.958Z,65.37
2022-10-06T13:06:34.022Z,64.14
2022-10-06T13:07:34.088Z,63.95
2022-10-06T13:08:34.146Z,63.85
2022-10-06T13:09:34.212Z,63.72
2022-10-06T13:10:34.418Z,64.14
2022-10-06T13:11:34.336Z,65.40
2022-10-06T13:12:34.398Z,65.24
2022-10-06T13:13:34.462Z,65.24
2022-10-06T13:14:34.524Z,64.37
2022-10-06T13:15:34.814Z,65.30
2022-10-06T13:16:34.700Z,66.33
2022-10-06T13:17:34.720Z,66.63
2022-10-06T13:18:34.782Z,66.08
2022-10-06T13:19:34.867Z,65.27
2022-10-06T13:20:34.928Z,66.36
2022-10-06T13:21:34.962Z,67.82
2022-10-06T13:22:35.259Z,66.72
2022-10-06T13:23:35.087Z,66.53
2022-10-06T13:24:35.157Z,65.69
2022-10-06T13:25:35.218Z,65.43
2022-10-06T13:26:35.285Z,64.17
2022-10-06T13:27:35.344Z,64.43
2022-10-06T13:28:35.428Z,63.75
2022-10-06T13:29:35.463Z,63.40
2022-10-06T13:30:38.771Z,62.07
2022-10-06T13:31:35.602Z,61.13
2022-10-06T13:32:35.648Z,61.55
2022-10-06T13:33:35.708Z,62.10
2022-10-06T13:34:35.777Z,62.46
2022-10-06T13:35:35.838Z,61.65
2022-10-06T13:36:35.916Z,60.19
2022-10-06T13:37:35.961Z,60.64
2022-10-06T13:38:36.025Z,60.45
2022-10-06T13:39:36.086Z,63.92
2022-10-06T13:40:44.929Z,64.98
2022-10-06T13:41:36.216Z,64.59
2022-10-06T13:42:36.276Z,67.85
2022-10-06T13:43:39.635Z,67.88
2022-10-06T13:44:36.405Z,68.30
2022-10-06T13:45:36.464Z,69.87
2022-10-06T13:46:36.557Z,70.14
2022-10-06T13:47:36.591Z,68.40
2022-10-06T13:48:36.654Z,66.98
2022-10-06T13:49:36.718Z,66.24
2022-10-06T13:50:36.779Z,64.82
2022-10-06T13:51:36.840Z,63.88
2022-10-06T13:52:36.921Z,63.53
2022-10-06T13:53:36.964Z,63.56
2022-10-06T13:54:37.029Z,64.56
2022-10-06T13:55:37.091Z,64.34
2022-10-06T13:56:37.156Z,63.88
2022-10-06T13:57:37.241Z,63.30
2022-10-06T13:58:37.280Z,62.88
2022-10-06T13:59:37.340Z,61.74
2022-10-06T14:00:37.411Z,60.68
2022-10-06T14:01:37.539Z,61.16
2022-10-06T14:02:37.581Z,61.35
2022-10-06T14:03:37.670Z,61.71
2022-10-06T14:04:39.618Z,62.23
2022-10-06T14:05:37.717Z,63.72
2022-10-06T14:06:37.783Z,65.56
2022-10-06T14:07:37.847Z,65.98
2022-10-06T14:08:37.926Z,65.34
2022-10-06T14:09:37.972Z,64.24
2022-10-06T14:10:38.035Z,63.72
2022-10-06T14:11:38.099Z,64.40
2022-10-06T14:12:38.161Z,63.95
2022-10-06T14:13:38.226Z,63.85
2022-10-06T14:14:38.287Z,64.24
2022-10-06T14:15:38.388Z,63.85
2022-10-06T14:16:38.414Z,63.56
2022-10-06T14:17:38.487Z,63.95
2022-10-06T14:18:38.541Z,64.11
2022-10-06T14:19:38.605Z,64.50
2022-10-06T14:20:38.670Z,65.08
2022-10-06T14:21:38.731Z,65.30
2022-10-06T14:22:38.794Z,68.30
2022-10-06T14:23:38.863Z,70.29
2022-10-06T14:24:38.937Z,70.42
2022-10-06T14:25:38.984Z,70.23
2022-10-06T14:26:39.047Z,68.95
2022-10-06T14:27:39.111Z,67.43
2022-10-06T14:28:39.237Z,66.69
2022-10-06T14:29:39.248Z,67.72
2022-10-06T14:30:39.320Z,68.43
2022-10-06T14:31:39.423Z,69.24
2022-10-06T14:32:39.421Z,68.37
2022-10-06T14:33:39.485Z,67.46
2022-10-06T14:34:39.547Z,67.56
2022-10-06T14:35:39.611Z,67.18
2022-10-06T14:36:39.671Z,66.14
2022-10-06T14:37:43.494Z,65.98
2022-10-06T14:38:39.796Z,65.82
2022-10-06T14:39:39.860Z,66.85
2022-10-06T14:40:40.014Z,66.69
2022-10-06T14:41:39.984Z,65.95
2022-10-06T14:42:40.115Z,65.95
2022-10-06T14:43:40.110Z,66.11
2022-10-06T14:44:40.170Z,66.14
2022-10-06T14:45:40.235Z,65.53
2022-10-06T14:46:40.359Z,66.33
2022-10-06T14:47:40.363Z,67.01
2022-10-06T14:48:40.434Z,66.72
2022-10-06T14:49:40.507Z,67.05
2022-10-06T14:50:40.547Z,66.75
2022-10-06T14:51:40.613Z,70.32
2022-10-06T14:52:40.671Z,70.75
2022-10-06T14:53:40.736Z,70.90
2022-10-06T14:54:40.799Z,69.68
2022-10-06T14:55:40.862Z,68.95
2022-10-06T14:56:40.939Z,68.91
2022-10-06T14:57:40.986Z,69.20
2022-10-06T14:58:41.048Z,68.66
2022-10-06T14:59:41.113Z,69.01
2022-10-06T15:00:41.172Z,69.84
2022-10-06T15:01:41.238Z,71.58
2022-10-06T15:02:41.382Z,72.94
2022-10-06T15:03:45.547Z,72.45
2022-10-06T15:04:41.423Z,71.30
2022-10-06T15:05:41.488Z,69.20
2022-10-06T15:06:41.553Z,69.10
2022-10-06T15:07:41.611Z,70.17
2022-10-06T15:08:41.672Z,73.09
2022-10-06T15:09:41.734Z,75.10
2022-10-06T15:10:41.798Z,76.07
2022-10-06T15:11:41.860Z,75.88
2022-10-06T15:12:42.049Z,76.65
2022-10-06T15:13:41.993Z,77.13
2022-10-06T15:14:42.045Z,76.98
2022-10-06T15:15:42.232Z,76.78
2022-10-06T15:16:42.276Z,76.82
2022-10-06T15:17:42.231Z,77.33
2022-10-06T15:18:42.923Z,80.14
2022-10-06T15:19:42.355Z,83.08
2022-10-06T15:20:42.416Z,85.27
2022-10-06T15:21:42.478Z,86.85
2022-10-06T15:22:42.541Z,87.05
2022-10-06T15:23:42.602Z,88.97
2022-10-06T15:24:42.660Z,91.71
2022-10-06T15:25:42.724Z,92.86
2022-10-06T15:26:42.782Z,93.15
2022-10-06T15:27:42.858Z,92.29
2022-10-06T15:28:42.990Z,93.20
2022-10-06T15:29:42.967Z,94.07
2022-10-06T15:30:43.023Z,93.30
2022-10-06T15:31:43.146Z,92.82
2022-10-06T15:32:43.143Z,93.87
2022-10-06T15:33:43.205Z,94.79
2022-10-06T15:34:43.264Z,97.86
2022-10-06T15:35:43.326Z,98.38
2022-10-06T15:36:43.382Z,97.71
2022-10-06T15:37:43.442Z,97.90
2022-10-06T15:38:43.500Z,98.28
2022-10-06T15:39:43.565Z,98.38
2022-10-06T15:40:43.618Z,99.73
2022-10-06T15:41:43.680Z,97.66
2022-10-06T15:42:43.735Z,98.72
2022-10-06T15:43:43.795Z,99.58
2022-10-06T15:44:43.869Z,99.99
2022-10-06T15:45:43.912Z,99.73
2022-10-06T15:46:44.104Z,98.19
2022-10-06T15:47:44.029Z,99.99
2022-10-06T15:48:44.086Z,99.05
2022-10-06T15:49:44.147Z,98.10
2022-10-06T15:50:44.203Z,99.99
2022-10-06T15:51:44.261Z,98.86
2022-10-06T15:52:44.316Z,98.67
2022-10-06T15:53:44.375Z,98.48
2022-10-06T15:54:44.431Z,99.99
2022-10-06T15:55:44.491Z,98.00
2022-10-06T15:56:44.597Z,98.10
2022-10-06T15:57:44.609Z,99.10
2022-10-06T15:58:44.662Z,99.01
2022-10-06T15:59:44.721Z,98.10
2022-10-06T16:00:44.796Z,99.99
2022-10-06T16:01:44.964Z,99.99
2022-10-06T16:02:45.102Z,99.58
2022-10-06T16:03:44.951Z,99.99
2022-10-06T16:04:45.012Z,99.99
2022-10-06T16:05:45.069Z,99.99
2022-10-06T16:06:45.120Z,99.99
2022-10-06T16:07:45.183Z,99.99
2022-10-06T16:08:45.234Z,99.99
2022-10-06T16:09:45.293Z,99.99
2022-10-06T16:10:45.347Z,99.99
2022-10-06T16:11:45.407Z,99.99
2022-10-06T16:12:45.462Z,99.99
2022-10-06T16:13:45.522Z,99.99
2022-10-06T16:14:45.577Z,99.87
2022-10-06T16:15:45.668Z,99.48
2022-10-06T16:16:45.727Z,99.10
2022-10-06T16:17:45.747Z,98.72
2022-10-06T16:18:45.804Z,99.99
2022-10-06T16:19:45.860Z,99.99
2022-10-06T16:20:45.915Z,99.99
2022-10-06T16:21:45.974Z,99.99
2022-10-06T16:22:46.029Z,99.99
2022-10-06T16:23:46.090Z,99.99
2022-10-06T16:24:46.142Z,99.39
2022-10-06T16:25:46.199Z,99.99
2022-10-06T16:26:46.256Z,99.99
2022-10-06T16:27:46.317Z,99.99
2022-10-06T16:28:46.370Z,99.99
2022-10-06T16:29:46.426Z,99.99
2022-10-06T16:30:46.481Z,99.99
2022-10-06T16:31:46.586Z,99.99
2022-10-06T16:32:46.613Z,99.99
2022-10-06T16:33:46.652Z,99.99
2022-10-06T16:34:46.709Z,99.99
2022-10-06T16:35:46.769Z,99.99
2022-10-06T16:36:46.820Z,99.99
2022-10-06T16:37:46.879Z,99.99
2022-10-06T16:38:46.933Z,99.99
2022-10-06T16:39:46.991Z,99.99
2022-10-06T16:40:47.046Z,99.99
2022-10-06T16:41:47.106Z,99.99
2022-10-06T16:42:47.158Z,99.99
2022-10-06T16:43:47.217Z,99.99
2022-10-06T16:44:47.270Z,99.99
2022-10-06T16:45:47.328Z,99.99
2022-10-06T16:46:47.447Z,99.99
2022-10-06T16:47:47.440Z,99.99
2022-10-06T16:48:47.513Z,99.99
2022-10-06T16:49:47.551Z,99.99
2022-10-06T16:50:47.608Z,99.99
2022-10-06T16:51:47.664Z,99.99
2022-10-06T16:52:47.718Z,99.99
2022-10-06T16:53:47.775Z,99.99
2022-10-06T16:54:47.830Z,99.99
2022-10-06T16:55:47.887Z,99.99
2022-10-06T16:56:47.943Z,99.99
2022-10-06T16:57:47.998Z,99.99
2022-10-06T16:58:48.052Z,99.99
2022-10-06T16:59:48.110Z,99.99
2022-10-06T17:00:48.210Z,99.99
2022-10-06T17:01:48.222Z,99.99
2022-10-06T17:02:48.276Z,99.99
2022-10-06T17:03:48.363Z,99.99
2022-10-06T17:04:48.402Z,99.99
2022-10-06T17:05:48.441Z,99.99
2022-10-06T17:06:48.496Z,99.99
2022-10-06T17:07:48.555Z,99.99
2022-10-06T17:08:48.607Z,99.99
2022-10-06T17:10:15.389Z,99.99
2022-10-06T17:10:48.721Z,99.99
2022-10-06T17:11:48.776Z,99.99
2022-10-06T17:12:48.829Z,99.99
2022-10-06T17:13:48.885Z,99.99
2022-10-06T17:14:48.939Z,99.99
2022-10-06T17:15:48.996Z,99.99
2022-10-06T17:16:49.123Z,99.99
2022-10-06T17:17:49.105Z,99.99
2022-10-06T17:18:49.161Z,99.99
2022-10-06T17:19:49.216Z,99.99
2022-10-06T17:20:49.311Z,99.99
2022-10-06T17:21:54.126Z,99.99
2022-10-06T17:22:49.380Z,99.99
2022-10-06T17:23:49.437Z,99.99
2022-10-06T17:24:49.492Z,99.99
2022-10-06T17:25:49.548Z,99.99
2022-10-06T17:26:49.604Z,99.99
2022-10-06T17:27:49.662Z,99.99
2022-10-06T17:28:49.713Z,99.99
2022-10-06T17:29:49.769Z,99.99
2022-10-06T17:30:49.821Z,99.99
2022-10-06T17:31:49.986Z,99.99
2022-10-06T17:32:49.931Z,99.99
2022-10-06T17:33:49.988Z,99.99
2022-10-06T17:34:50.041Z,99.99
2022-10-06T17:35:50.099Z,99.99
2022-10-06T17:36:50.183Z,99.99
2022-10-06T17:37:50.207Z,99.99
2022-10-06T17:38:50.262Z,99.99
2022-10-06T17:39:50.357Z,99.99
2022-10-06T17:40:50.371Z,99.99
2022-10-06T17:43:28.017Z,99.99
2022-10-06T17:44:28.072Z,99.99
2022-10-06T17:45:28.154Z,99.99
2022-10-06T17:46:28.181Z,99.99
2022-10-06T17:47:28.235Z,99.99
2022-10-06T17:48:28.289Z,99.99
2022-10-06T17:49:28.344Z,99.99
2022-10-06T17:50:28.399Z,99.99
2022-10-06T17:51:28.454Z,99.99
2022-10-06T17:52:28.526Z,99.99
2022-10-06T17:53:28.562Z,99.99
2022-10-06T17:54:28.623Z,99.99
2022-10-06T17:55:28.672Z,99.99
2022-10-06T17:56:28.726Z,99.99
2022-10-06T17:57:28.781Z,99.99
2022-10-06T17:58:28.835Z,99.99
2022-10-06T17:59:28.903Z,99.99
2022-10-06T18:00:28.946Z,99.99
2022-10-06T18:01:29.072Z,99.99
2022-10-06T18:02:29.103Z,99.99
2022-10-06T18:03:29.109Z,99.99
2022-10-06T18:04:29.208Z,99.99
2022-10-06T18:05:32.833Z,99.99
2022-10-06T18:06:29.271Z,99.99
2022-10-06T18:07:29.328Z,99.99
2022-10-06T18:08:29.398Z,99.99
2022-10-06T18:09:29.436Z,99.99
2022-10-06T18:10:29.489Z,99.99
2022-10-06T18:11:29.546Z,99.99
2022-10-06T18:12:29.598Z,99.99
2022-10-06T18:13:29.654Z,99.99
2022-10-06T18:14:29.706Z,99.99
2022-10-06T18:15:29.762Z,99.99
2022-10-06T18:16:29.852Z,99.99
2022-10-06T18:17:29.870Z,99.99
2022-10-06T18:18:29.923Z,99.99
2022-10-06T18:19:30.541Z,99.99
2022-10-06T18:20:30.080Z,99.99
2022-10-06T18:21:30.087Z,99.99
2022-10-06T18:22:30.140Z,99.99
2022-10-06T18:23:30.196Z,99.99
2022-10-06T18:24:30.322Z,99.99
2022-10-06T18:25:30.303Z,99.99
2022-10-06T18:26:30.356Z,99.99
2022-10-06T18:27:30.413Z,99.99
2022-10-06T18:28:30.521Z,99.99
2022-10-06T18:29:30.519Z,99.99
2022-10-06T18:30:30.574Z,99.99
2022-10-06T18:31:30.685Z,99.99
2022-10-06T18:36:30.898Z,99.99
2022-10-06T18:37:30.953Z,99.99
2022-10-06T18:38:31.006Z,99.99
2022-10-06T18:39:31.067Z,99.99
2022-10-06T18:40:31.131Z,99.99
2022-10-06T18:41:31.169Z,99.99
2022-10-06T18:42:31.222Z,99.99
2022-10-06T18:43:31.278Z,99.99
2022-10-06T18:44:31.330Z,99.99
2022-10-06T18:45:35.446Z,99.99
2022-10-06T18:46:31.547Z,99.99
2022-10-06T18:47:31.496Z,99.99
2022-10-06T18:48:31.546Z,99.99
2022-10-06T18:49:31.600Z,99.99
2022-10-06T18:50:31.653Z,99.99
2022-10-06T18:51:31.711Z,99.99
2022-10-06T18:52:31.763Z,99.99
2022-10-06T18:53:31.815Z,99.99
2022-10-06T18:54:31.870Z,99.99
2022-10-06T18:55:31.955Z,99.99
2022-10-06T18:56:31.994Z,99.99
2022-10-06T18:57:32.031Z,99.99
2022-10-06T18:58:32.083Z,99.99
2022-10-06T18:59:32.139Z,99.99
2022-10-06T19:00:32.191Z,99.99
2022-10-06T19:01:32.365Z,99.99
2022-10-06T19:02:32.462Z,99.99
2022-10-06T19:03:32.354Z,99.99
2022-10-06T19:04:32.406Z,99.99
2022-10-06T19:05:32.461Z,99.99
2022-10-06T19:06:32.515Z,99.99
2022-10-06T19:07:32.571Z,99.99
2022-10-06T19:08:32.622Z,99.99
2022-10-06T19:09:32.676Z,99.99
2022-10-06T19:10:32.730Z,99.99
2022-10-06T19:11:32.784Z,99.99
2022-10-06T19:12:32.856Z,99.99
2022-10-06T19:13:32.898Z,99.99
2022-10-06T19:14:32.943Z,99.99
2022-10-06T19:15:32.998Z,99.99
2022-10-06T19:16:33.064Z,99.99
2022-10-06T19:17:33.115Z,99.99
2022-10-06T19:18:33.156Z,99.99
2022-10-06T19:19:33.213Z,99.99
2022-10-06T19:20:33.265Z,99.99
2022-10-06T19:21:33.321Z,99.99
2022-10-06T19:22:33.376Z,99.99
2022-10-06T19:23:33.427Z,99.99
2022-10-06T19:24:33.480Z,99.99
2022-10-06T19:25:33.536Z,99.99
2022-10-06T19:26:33.586Z,99.99
2022-10-06T19:27:33.641Z,99.99
2022-10-06T19:28:33.863Z,99.99
2022-10-06T19:29:33.749Z,99.99
2022-10-06T19:30:33.840Z,99.99
2022-10-06T19:31:33.860Z,99.99
2022-10-06T19:32:33.910Z,99.99
2022-10-06T19:33:33.961Z,99.99
2022-10-06T19:34:34.013Z,99.99
2022-10-06T19:35:34.071Z,99.99
2022-10-06T19:36:34.121Z,99.99
2022-10-06T19:37:34.176Z,99.99
2022-10-06T19:38:34.227Z,99.99
2022-10-06T19:39:34.282Z,99.99
2022-10-06T19:40:34.335Z,99.99
2022-10-06T19:41:34.389Z,99.99
2022-10-06T19:42:34.440Z,99.99
2022-10-06T19:43:34.495Z,99.99
2022-10-06T19:44:36.447Z,99.99
2022-10-06T19:45:34.602Z,99.99
2022-10-06T19:46:34.654Z,99.99
2022-10-06T19:47:34.711Z,99.99
2022-10-06T19:48:34.760Z,99.99
2022-10-06T19:49:34.814Z,99.99
2022-10-06T19:50:34.867Z,99.99
2022-10-06T19:51:34.923Z,99.99
2022-10-06T19:52:34.975Z,99.99
2022-10-06T19:53:35.028Z,99.99
2022-10-06T19:54:35.081Z,99.99
2022-10-06T19:55:35.135Z,99.99
2022-10-06T19:56:35.187Z,99.99
2022-10-06T19:57:35.241Z,99.99
2022-10-06T19:58:35.292Z,99.99
2022-10-06T19:59:35.351Z,99.99
2022-10-06T20:00:35.421Z,99.99
2022-10-06T20:01:35.488Z,99.99
2022-10-06T20:02:39.838Z,99.99
2022-10-06T20:03:35.560Z,99.99
2022-10-06T20:04:35.660Z,99.99
2022-10-06T20:05:35.666Z,99.99
2022-10-06T20:06:35.718Z,99.99
2022-10-06T20:07:35.774Z,99.99
2022-10-06T20:08:35.824Z,99.99
2022-10-06T20:09:35.883Z,99.99
2022-10-06T20:10:35.930Z,99.99
2022-10-06T20:11:35.985Z,99.99
2022-10-06T20:12:36.038Z,99.99
2022-10-06T20:13:36.094Z,99.99
2022-10-06T20:14:36.142Z,99.99
2022-10-06T20:15:36.199Z,99.99
2022-10-06T20:16:36.376Z,99.99
2022-10-06T20:17:36.304Z,99.99
2022-10-06T20:18:36.360Z,99.99
2022-10-06T20:19:36.415Z,99.99
2022-10-06T20:20:36.462Z,99.99
2022-10-06T20:21:36.515Z,99.99
2022-10-06T20:22:36.568Z,99.99
2022-10-06T20:23:36.621Z,99.99
2022-10-06T20:24:36.674Z,99.99
2022-10-06T20:25:36.728Z,99.99
2022-10-06T20:26:36.780Z,99.99
2022-10-06T20:27:36.834Z,99.99
2022-10-06T20:28:36.970Z,99.99
2022-10-06T20:29:36.942Z,99.99
2022-10-06T20:30:37.057Z,99.99
2022-10-06T20:31:37.046Z,99.99
2022-10-06T20:32:37.117Z,99.99
2022-10-06T20:33:37.151Z,99.99
2022-10-06T20:34:37.213Z,99.99
2022-10-06T20:35:37.257Z,99.99
2022-10-06T20:36:37.308Z,99.99
2022-10-06T20:37:37.366Z,99.99
2022-10-06T20:38:37.447Z,99.99
2022-10-06T20:39:37.470Z,99.99
2022-10-06T20:40:37.523Z,99.99
2022-10-06T20:41:37.574Z,99.99
2022-10-06T20:42:37.626Z,99.99
2022-10-06T20:43:37.682Z,99.99
2022-10-06T20:44:37.733Z,99.99
2022-10-06T20:45:37.792Z,99.99
2022-10-06T20:46:37.912Z,99.99
2022-10-06T20:47:37.892Z,99.99
2022-10-06T20:48:37.960Z,99.99
2022-10-06T20:49:37.997Z,99.99
2022-10-06T20:50:38.048Z,99.99
2022-10-06T20:51:38.102Z,99.99
2022-10-06T20:52:38.154Z,99.99
2022-10-06T20:53:38.210Z,99.99
2022-10-06T20:54:38.260Z,99.99
2022-10-06T20:55:38.315Z,99.99
2022-10-06T20:56:38.365Z,99.99
2022-10-06T20:57:38.425Z,99.99
2022-10-06T20:58:38.469Z,99.99
2022-10-06T20:59:38.524Z,99.99
2022-10-06T21:00:38.613Z,99.99
2022-10-06T21:01:38.758Z,99.99
2022-10-06T21:02:38.774Z,99.99
2022-10-06T21:03:38.769Z,99.99
2022-10-06T21:04:38.840Z,99.99
2022-10-06T21:05:38.873Z,99.99
2022-10-06T21:06:38.928Z,99.99
2022-10-06T21:07:38.979Z,99.99
2022-10-06T21:08:39.032Z,99.99
2022-10-06T21:09:39.084Z,99.99
2022-10-06T21:10:39.143Z,99.99
2022-10-06T21:11:39.193Z,99.99
2022-10-06T21:12:39.243Z,99.99
2022-10-06T21:13:39.295Z,99.99
2022-10-06T21:14:39.352Z,99.99
2022-10-06T21:15:39.467Z,99.99
2022-10-06T21:16:39.455Z,99.99
2022-10-06T21:17:39.507Z,99.99
2022-10-06T21:18:39.556Z,99.99
2022-10-06T21:19:39.610Z,99.99
2022-10-06T21:20:44.400Z,99.99
2022-10-06T21:21:39.714Z,99.99
2022-10-06T21:22:39.766Z,99.99
2022-10-06T21:23:39.819Z,99.99
2022-10-06T21:24:39.873Z,99.99
2022-10-06T21:25:39.923Z,99.99
2022-10-06T21:26:39.978Z,99.99
2022-10-06T21:27:40.031Z,99.99
2022-10-06T21:28:40.127Z,99.99
2022-10-06T21:29:40.137Z,99.99
2022-10-06T21:30:40.188Z,99.99
2022-10-06T21:31:40.240Z,99.99
2022-10-06T21:32:40.293Z,99.99
2022-10-06T21:33:40.347Z,99.99
2022-10-06T21:34:40.396Z,99.99
2022-10-06T21:35:40.449Z,99.99
2022-10-06T21:36:40.519Z,99.99
2022-10-06T21:37:40.626Z,99.99
2022-10-06T21:38:40.610Z,99.99
2022-10-06T21:39:40.659Z,99.99
2022-10-06T21:40:40.709Z,99.99
2022-10-06T21:41:40.780Z,99.99
2022-10-06T21:42:40.816Z,99.99
2022-10-06T21:43:40.869Z,99.99
2022-10-06T21:44:40.922Z,99.99
2022-10-06T21:45:40.973Z,99.99
2022-10-06T21:46:41.139Z,99.99
2022-10-06T21:47:41.421Z,99.99
2022-10-06T21:48:41.131Z,99.99
2022-10-06T21:49:41.183Z,99.99
2022-10-06T21:50:41.232Z,99.99
2022-10-06T21:51:41.285Z,99.99
2022-10-06T21:52:41.353Z,99.99
2022-10-06T21:53:41.388Z,99.99
2022-10-06T21:54:41.440Z,99.99
2022-10-06T21:55:41.494Z,99.99
2022-10-06T21:56:41.551Z,99.99
2022-10-06T21:57:41.865Z,99.99
2022-10-06T21:58:41.650Z,99.99
2022-10-06T21:59:41.703Z,99.99
2022-10-06T22:00:41.755Z,99.99
2022-10-06T22:01:41.884Z,99.99
2022-10-06T22:02:41.912Z,99.99
2022-10-06T22:03:41.911Z,99.99
2022-10-06T22:04:41.968Z,99.99
2022-10-06T22:05:42.016Z,99.99
2022-10-06T22:06:42.070Z,99.99
2022-10-06T22:07:42.424Z,99.99
2022-10-06T22:08:42.190Z,99.99
2022-10-06T22:09:42.228Z,99.99
2022-10-06T22:10:42.278Z,99.99
2022-10-06T22:11:42.329Z,99.99
2022-10-06T22:12:42.383Z,99.99
2022-10-06T22:13:42.435Z,99.99
2022-10-06T22:14:42.483Z,99.99
2022-10-06T22:15:42.629Z,99.99
2022-10-06T22:16:42.589Z,99.99
2022-10-06T22:17:42.920Z,99.99
2022-10-06T22:18:42.691Z,99.99
2022-10-06T22:19:42.744Z,99.99
2022-10-06T22:20:42.797Z,99.99
2022-10-06T22:21:42.848Z,99.99
2022-10-06T22:22:42.901Z,99.99
2022-10-06T22:23:42.955Z,99.99
2022-10-06T22:24:43.025Z,99.99
2022-10-06T22:25:43.058Z,99.99
2022-10-06T22:26:43.110Z,99.99
2022-10-06T22:27:43.465Z,99.99
2022-10-06T22:28:43.260Z,99.99
2022-10-06T22:29:43.265Z,99.99
2022-10-06T22:30:43.320Z,99.99
2022-10-06T22:31:43.447Z,99.99
2022-10-06T22:32:43.421Z,99.99
2022-10-06T22:33:43.476Z,99.99
2022-10-06T22:34:43.524Z,99.99
2022-10-06T22:35:43.575Z,99.99
2022-10-06T22:36:43.628Z,99.99
2022-10-06T22:37:43.844Z,99.99
2022-10-06T22:38:43.734Z,99.99
2022-10-06T22:39:43.786Z,99.99
2022-10-06T22:40:43.855Z,99.99
2022-10-06T22:41:43.892Z,99.99
2022-10-06T22:42:43.941Z,99.99
2022-10-06T22:43:43.992Z,99.99
2022-10-06T22:44:44.047Z,99.99
2022-10-06T22:45:44.096Z,99.99
2022-10-06T22:46:44.277Z,99.99
2022-10-06T22:47:44.501Z,99.99
2022-10-06T22:48:44.251Z,99.99
2022-10-06T22:49:44.302Z,99.99
2022-10-06T22:50:44.354Z,99.99
2022-10-06T22:51:44.406Z,99.99
2022-10-06T22:52:44.459Z,99.99
2022-10-06T22:53:44.509Z,99.99
2022-10-06T22:54:44.566Z,99.99
2022-10-06T22:55:44.618Z,99.99